This is the latest recevied weather packets stored in our database for station/object WB5LFS-1. If no packets are shown the sender has not sent any weather packets the latest 10 day(s).
| Time | Temp. | Humidity | Pressure | Rain* | Wind** | Luminosity | Snow |
|---|---|---|---|---|---|---|---|
| 1777694214 | 12.78° C | 79% | 1013 hPa | 0 mm | - | - | - |
| 1777693314 | 13.33° C | 79% | 1013.3 hPa | 0 mm | - | - | - |
| 1777692414 | 13.33° C | 78% | 1012.7 hPa | 0 mm | - | - | - |
| 1777691514 | 13.33° C | 77% | 1012.4 hPa | 0 mm | - | - | - |
| 1777690628 | 13.33° C | 76% | 1012.3 hPa | 0 mm | - | - | - |
| 1777689714 | 13.89° C | 75% | 1012.4 hPa | 0 mm | - | - | - |
| 1777688814 | 13.89° C | 74% | 1012.6 hPa | 0 mm | - | - | - |
| 1777687914 | 13.33° C | 74% | 1012.6 hPa | 0 mm | - | - | - |
| 1777687014 | 13.33° C | 75% | 1012.6 hPa | 0 mm | - | - | - |
| 1777686114 | 13.33° C | 75% | 1012.4 hPa | 0 mm | - | - | - |
| 1777685214 | 12.78° C | 75% | 1012.4 hPa | 0 mm | - | - | - |
| 1777684314 | 13.33° C | 75% | 1012.3 hPa | 0 mm | - | - | - |
| 1777683414 | 13.33° C | 74% | 1011.9 hPa | 0 mm | - | - | - |
| 1777682514 | 13.33° C | 73% | 1011.8 hPa | 0 mm | - | - | - |
| 1777681614 | 13.89° C | 71% | 1011.7 hPa | 0 mm | - | - | - |
| 1777680714 | 14.44° C | 70% | 1011.7 hPa | 0 mm | - | - | - |
| 1777679814 | 15° C | 68% | 1011.7 hPa | 0 mm | - | - | - |
| 1777678914 | 15.56° C | 66% | 1011.7 hPa | 0 mm | - | - | - |
| 1777678014 | 16.11° C | 64% | 1011.8 hPa | 0 mm | - | - | - |
| 1777677114 | 16.67° C | 61% | 1011.7 hPa | 0 mm | - | - | - |
| 1777676215 | 18.33° C | 53% | 1011.6 hPa | 0 mm | - | - | - |
| 1777675314 | 18.89° C | 49% | 1011.6 hPa | 0 mm | - | - | - |
| 1777674415 | 20° C | 45% | 1011.6 hPa | 0 mm | - | - | - |
| 1777673515 | 20° C | 40% | 1011.6 hPa | 0 mm | - | - | - |
| 1777672614 | 20° C | 38% | 1011.5 hPa | 0 mm | - | - | - |
* Rain latest hour (hover to see other rain measurements)
** Current wind speed in m/s (hover to see current wind gust speed)